Heythuysen, Netherlands
Current Conditions -  °F | °C
As of 6:44 AM on Thursday 27 Nov 2014 (Local Time) from EBBL Reporting Station
Broken Clouds Broken Clouds  
Wind Chill: 45°   Ceiling: 2200
Heat Index: 45°   Visibility: 5mi
Dew Point: 41°   Wind: 3mph
Humidity: 87%   Direction: NA
Pressure: 29.77"   Gusts: NA
Location:  51.25°N, 5.9°E
Report Text: EBBL 270544Z VRB03KT 8000 BKN022 BKN050 07/05 Q1008 WHT WHT TEMPO BLU
Loading
Personal Weather Stations






























Interactive Weather Map New forecast layout! Learn more

10-Day Weather Forecast

Advertisements
Track Severe Weather on mobile